Time;durP1;ratioP1;P1;durP2;ratioP2;P2;SDS_P1;SDS_P2;PMS_P1;PMS_P2;Temp;Humidity;BMP_temperature;BMP_pressure;BME280_temperature;BME280_humidity;BME280_pressure;Samples;Min_cycle;Max_cycle;Signal;HPM_P1;HPM_P2
2022/07/25 00:02:06;;;;;;;0.20;0.20;;;;;;;;;;6193454;23;20019;-88
2022/07/25 00:04:32;;;;;;;0.10;0.10;;;;;;;;;;6193360;23;20083;-88
2022/07/25 00:06:58;;;;;;;0.15;0.15;;;;;;;;;;6193186;23;20008;-89
2022/07/25 00:09:24;;;;;;;0.10;0.10;;;;;;;;;;6193267;23;20044;-88
2022/07/25 00:11:50;;;;;;;0.10;0.10;;;;;;;;;;6193330;23;20384;-88
2022/07/25 00:14:16;;;;;;;0.10;0.10;;;;;;;;;;6193109;23;20077;-88
2022/07/25 00:16:42;;;;;;;0.10;0.10;;;;;;;;;;6193032;23;20012;-88
2022/07/25 00:19:07;;;;;;;0.10;0.10;;;;;;;;;;6217952;23;20012;-87
2022/07/25 00:21:34;;;;;;;0.10;0.10;;;;;;;;;;6193385;23;20078;-87
2022/07/25 00:24:00;;;;;;;0.10;0.10;;;;;;;;;;6218021;23;20340;-87
2022/07/25 00:26:25;;;;;;;0.10;0.10;;;;;;;;;;6193184;23;20091;-87
2022/07/25 00:28:51;;;;;;;0.10;0.10;;;;;;;;;;6217889;23;20058;-87
2022/07/25 00:31:17;;;;;;;0.10;0.10;;;;;;;;;;6193271;23;20022;-88
2022/07/25 00:33:43;;;;;;;0.10;0.10;;;;;;;;;;6192957;23;20020;-88
2022/07/25 00:36:09;;;;;;;0.10;0.10;;;;;;;;;;6193234;23;20070;-87
2022/07/25 00:38:35;;;;;;;0.10;0.10;;;;;;;;;;6193197;23;20402;-87
2022/07/25 00:41:03;;;;;;;0.10;0.10;;;;;;;;;;6193156;23;20402;-86
2022/07/25 00:43:29;;;;;;;0.10;0.10;;;;;;;;;;6193056;23;20022;-86
2022/07/25 00:45:57;;;;;;;0.10;0.10;;;;;;;;;;6217860;23;20087;-87
2022/07/25 00:48:23;;;;;;;0.38;0.22;;;;;;;;;;6193108;23;20016;-86
2022/07/25 00:50:49;;;;;;;0.10;0.10;;;;;;;;;;6217824;23;20044;-86
2022/07/25 00:53:15;;;;;;;0.10;0.10;;;;;;;;;;6192803;23;20019;-87
2022/07/25 00:55:41;;;;;;;0.10;0.10;;;;;;;;;;6193127;23;20023;-86
2022/07/25 00:58:07;;;;;;;0.10;0.10;;;;;;;;;;6192913;23;20082;-87
2022/07/25 01:00:33;;;;;;;0.10;0.10;;;;;;;;;;6194907;23;20454;-86
2022/07/25 01:02:59;;;;;;;0.20;0.20;;;;;;;;;;6194871;23;20039;-86
2022/07/25 01:05:25;;;;;;;0.10;0.10;;;;;;;;;;6195027;23;20483;-87
2022/07/25 01:07:51;;;;;;;0.10;0.10;;;;;;;;;;6194960;23;20070;-88
2022/07/25 01:10:17;;;;;;;0.63;0.63;;;;;;;;;;6194704;23;20090;-88
2022/07/25 01:12:44;;;;;;;0.10;0.10;;;;;;;;;;6194761;23;20044;-87
2022/07/25 01:15:10;;;;;;;0.10;0.10;;;;;;;;;;6219976;23;20040;-88
2022/07/25 01:17:36;;;;;;;0.10;0.10;;;;;;;;;;6194850;23;20256;-88
2022/07/25 01:20:02;;;;;;;0.10;0.10;;;;;;;;;;6194785;23;20062;-89
2022/07/25 01:22:27;;;;;;;0.10;0.10;;;;;;;;;;6194823;23;20038;-88
2022/07/25 01:24:53;;;;;;;0.20;0.20;;;;;;;;;;6194878;23;20051;-88
2022/07/25 01:27:19;;;;;;;0.10;0.10;;;;;;;;;;6194791;23;20016;-88
2022/07/25 01:29:45;;;;;;;0.25;0.25;;;;;;;;;;6194531;23;20019;-88
2022/07/25 01:32:11;;;;;;;0.20;0.20;;;;;;;;;;6194604;23;20074;-88
2022/07/25 01:34:37;;;;;;;0.10;0.10;;;;;;;;;;6194870;23;20461;-87
2022/07/25 01:37:03;;;;;;;0.10;0.10;;;;;;;;;;6194822;23;20050;-88
2022/07/25 01:39:29;;;;;;;0.10;0.10;;;;;;;;;;6194403;23;20016;-88
2022/07/25 01:41:55;;;;;;;0.10;0.10;;;;;;;;;;6194959;23;20027;-87
2022/07/25 01:44:21;;;;;;;0.20;0.20;;;;;;;;;;6194590;23;20023;-88
2022/07/25 01:46:47;;;;;;;0.10;0.10;;;;;;;;;;6219409;23;20092;-88
2022/07/25 01:49:13;;;;;;;0.10;0.10;;;;;;;;;;6194372;23;20442;-87
2022/07/25 01:51:39;;;;;;;0.38;0.38;;;;;;;;;;6194681;23;20008;-88
2022/07/25 01:54:05;;;;;;;0.10;0.10;;;;;;;;;;6194445;23;20480;-88
2022/07/25 01:56:31;;;;;;;0.20;0.20;;;;;;;;;;6194548;23;20012;-88
2022/07/25 01:58:57;;;;;;;0.55;0.20;;;;;;;;;;6218937;23;20012;-88
2022/07/25 02:01:23;;;;;;;0.10;0.10;;;;;;;;;;6219115;23;20008;-88
2022/07/25 02:03:49;;;;;;;0.10;0.10;;;;;;;;;;6219286;23;20023;-89
2022/07/25 02:06:15;;;;;;;0.20;0.20;;;;;;;;;;6194353;23;20048;-88
2022/07/25 02:08:41;;;;;;;0.10;0.10;;;;;;;;;;6218796;23;20023;-88
2022/07/25 02:11:07;;;;;;;0.10;0.10;;;;;;;;;;6193952;23;20095;-88
2022/07/25 02:13:33;;;;;;;0.10;0.10;;;;;;;;;;6194147;23;20012;-88
2022/07/25 02:15:59;;;;;;;0.10;0.10;;;;;;;;;;6194092;23;20338;-88
2022/07/25 02:18:25;;;;;;;0.65;0.65;;;;;;;;;;6194384;23;20019;-88
2022/07/25 02:20:51;;;;;;;0.10;0.10;;;;;;;;;;6219132;23;20012;-88
2022/07/25 02:23:17;;;;;;;0.10;0.10;;;;;;;;;;6194118;23;20012;-88
2022/07/25 02:25:43;;;;;;;0.10;0.10;;;;;;;;;;6194277;23;20020;-87
2022/07/25 02:28:09;;;;;;;0.10;0.10;;;;;;;;;;6193921;23;20020;-88
2022/07/25 02:30:35;;;;;;;0.10;0.10;;;;;;;;;;6218805;23;20454;-88
2022/07/25 02:33:01;;;;;;;0.10;0.10;;;;;;;;;;6193897;23;20142;-88
2022/07/25 02:35:29;;;;;;;0.35;0.35;;;;;;;;;;6194079;23;20019;-93
2022/07/25 02:37:55;;;;;;;0.10;0.10;;;;;;;;;;6218856;23;20095;-88
2022/07/25 02:40:21;;;;;;;0.10;0.10;;;;;;;;;;6244038;23;20051;-87
2022/07/25 02:42:47;;;;;;;0.10;0.10;;;;;;;;;;6218895;23;20016;-87
2022/07/25 02:45:13;;;;;;;0.10;0.10;;;;;;;;;;6194214;23;20016;-88
2022/07/25 02:47:39;;;;;;;0.10;0.10;;;;;;;;;;6194003;23;20023;-87
2022/07/25 02:50:05;;;;;;;0.10;0.10;;;;;;;;;;6218751;23;20012;-87
2022/07/25 02:52:31;;;;;;;0.10;0.10;;;;;;;;;;6193818;23;20012;-88
2022/07/25 02:54:57;;;;;;;0.25;0.25;;;;;;;;;;6194096;23;20015;-88
2022/07/25 02:57:23;;;;;;;0.10;0.10;;;;;;;;;;6218668;23;20019;-88
2022/07/25 02:59:49;;;;;;;0.10;0.10;;;;;;;;;;6193735;23;20393;-88
2022/07/25 03:02:16;;;;;;;0.10;0.10;;;;;;;;;;6194031;23;20039;-87
2022/07/25 03:04:42;;;;;;;0.10;0.10;;;;;;;;;;6193786;23;20437;-87
2022/07/25 03:07:08;;;;;;;0.10;0.10;;;;;;;;;;6193261;23;20146;-88
2022/07/25 03:09:34;;;;;;;0.20;0.20;;;;;;;;;;6193642;23;20044;-87
2022/07/25 03:12:00;;;;;;;0.10;0.10;;;;;;;;;;6193597;23;20070;-88
2022/07/25 03:14:26;;;;;;;0.10;0.10;;;;;;;;;;6218650;23;20441;-88
2022/07/25 03:16:52;;;;;;;0.10;0.10;;;;;;;;;;6193656;23;20083;-88
2022/07/25 03:19:18;;;;;;;0.10;0.10;;;;;;;;;;6193647;23;20066;-87
2022/07/25 03:21:45;;;;;;;0.10;0.10;;;;;;;;;;6193922;23;20334;-87
2022/07/25 03:24:11;;;;;;;0.17;0.17;;;;;;;;;;6193591;23;20016;-87
2022/07/25 03:26:37;;;;;;;0.10;0.10;;;;;;;;;;6218474;23;20315;-88
2022/07/25 03:29:03;;;;;;;0.10;0.10;;;;;;;;;;6193507;23;20012;-87
2022/07/25 03:31:29;;;;;;;0.13;0.13;;;;;;;;;;6193671;23;20024;-87
2022/07/25 03:33:55;;;;;;;0.10;0.10;;;;;;;;;;6193512;23;20023;-87
2022/07/25 03:36:21;;;;;;;0.10;0.10;;;;;;;;;;6193594;23;20398;-87
2022/07/25 03:38:47;;;;;;;0.25;0.25;;;;;;;;;;6193617;23;20039;-87
2022/07/25 03:41:13;;;;;;;0.10;0.10;;;;;;;;;;6218000;23;20028;-87
2022/07/25 03:43:39;;;;;;;0.20;0.20;;;;;;;;;;6218311;23;20240;-87
2022/07/25 03:46:05;;;;;;;0.20;0.20;;;;;;;;;;6218262;23;20043;-86
2022/07/25 03:48:31;;;;;;;0.30;0.30;;;;;;;;;;6193228;23;20349;-87
2022/07/25 03:50:57;;;;;;;0.10;0.10;;;;;;;;;;6193268;23;20015;-87
2022/07/25 03:53:23;;;;;;;0.30;0.25;;;;;;;;;;6218068;23;20054;-90
2022/07/25 03:55:49;;;;;;;0.10;0.10;;;;;;;;;;6193314;23;20392;-86
2022/07/25 03:58:15;;;;;;;0.20;0.20;;;;;;;;;;6218055;23;20472;-85
2022/07/25 04:00:41;;;;;;;0.10;0.10;;;;;;;;;;6218121;23;20016;-86
2022/07/25 04:03:07;;;;;;;0.20;0.20;;;;;;;;;;6218129;23;20422;-87
2022/07/25 04:05:33;;;;;;;0.10;0.10;;;;;;;;;;6218112;23;20012;-87
2022/07/25 04:07:59;;;;;;;0.10;0.10;;;;;;;;;;6192958;23;20016;-86
2022/07/25 04:10:25;;;;;;;0.10;0.10;;;;;;;;;;6193047;23;20012;-87
2022/07/25 04:12:51;;;;;;;0.20;0.20;;;;;;;;;;6193152;23;20019;-87
2022/07/25 04:15:17;;;;;;;0.10;0.10;;;;;;;;;;6218108;23;20012;-89
2022/07/25 04:17:43;;;;;;;0.10;0.10;;;;;;;;;;6193105;23;20023;-89
2022/07/25 04:20:10;;;;;;;0.10;0.10;;;;;;;;;;6217943;23;20019;-89
2022/07/25 04:22:36;;;;;;;0.10;0.10;;;;;;;;;;6193057;23;20019;-89
2022/07/25 04:25:02;;;;;;;0.10;0.10;;;;;;;;;;6193133;23;20020;-89
2022/07/25 04:27:28;;;;;;;0.10;0.10;;;;;;;;;;6193077;23;20019;-89
2022/07/25 04:29:54;;;;;;;0.10;0.10;;;;;;;;;;6193043;23;20016;-88
2022/07/25 04:32:20;;;;;;;0.10;0.10;;;;;;;;;;6193216;23;20012;-89
2022/07/25 04:34:45;;;;;;;0.10;0.10;;;;;;;;;;6193690;23;20008;-88
2022/07/25 04:37:11;;;;;;;0.10;0.10;;;;;;;;;;6194213;23;20016;-88
2022/07/25 04:39:37;;;;;;;0.10;0.10;;;;;;;;;;6192950;23;20016;-87
2022/07/25 04:42:04;;;;;;;0.10;0.10;;;;;;;;;;6192875;23;20315;-88
2022/07/25 04:44:30;;;;;;;0.10;0.10;;;;;;;;;;6193022;23;20019;-88
2022/07/25 04:46:55;;;;;;;0.20;0.20;;;;;;;;;;6192974;23;20008;-88
2022/07/25 04:49:22;;;;;;;0.10;0.10;;;;;;;;;;6192980;23;20095;-88
2022/07/25 04:51:47;;;;;;;0.10;0.10;;;;;;;;;;6192986;23;20087;-87
2022/07/25 04:54:13;;;;;;;0.10;0.10;;;;;;;;;;6192734;23;20050;-88
2022/07/25 04:56:39;;;;;;;0.10;0.10;;;;;;;;;;6192972;23;20453;-87
2022/07/25 04:59:05;;;;;;;0.10;0.10;;;;;;;;;;6192852;23;20005;-87
2022/07/25 05:01:31;;;;;;;0.10;0.10;;;;;;;;;;6192729;23;20051;-87
2022/07/25 05:03:57;;;;;;;0.10;0.10;;;;;;;;;;6192824;23;20016;-87
2022/07/25 05:06:23;;;;;;;0.40;0.40;;;;;;;;;;6193367;23;20012;-87
2022/07/25 05:08:49;;;;;;;0.10;0.10;;;;;;;;;;6217731;23;20020;-87
2022/07/25 05:11:15;;;;;;;0.10;0.10;;;;;;;;;;6217732;23;20066;-87
2022/07/25 05:13:41;;;;;;;0.10;0.10;;;;;;;;;;6192776;23;20016;-88
2022/07/25 05:16:07;;;;;;;0.10;0.10;;;;;;;;;;6192737;23;20008;-87
2022/07/25 05:18:34;;;;;;;0.30;0.30;;;;;;;;;;6192813;23;20009;-87
2022/07/25 05:21:00;;;;;;;0.20;0.20;;;;;;;;;;6193011;23;20337;-88
2022/07/25 05:23:26;;;;;;;0.45;0.45;;;;;;;;;;6217652;23;20051;-88
2022/07/25 05:25:52;;;;;;;0.10;0.10;;;;;;;;;;6217928;23;20051;-89
2022/07/25 05:28:18;;;;;;;0.10;0.10;;;;;;;;;;6192740;23;20016;-88
2022/07/25 05:30:43;;;;;;;0.13;0.13;;;;;;;;;;6217561;23;20012;-87
2022/07/25 05:33:09;;;;;;;0.10;0.10;;;;;;;;;;6192610;23;20019;-89
2022/07/25 05:35:35;;;;;;;0.10;0.10;;;;;;;;;;6192657;23;20008;-88
2022/07/25 05:38:01;;;;;;;0.20;0.20;;;;;;;;;;6192517;23;20092;-89
2022/07/25 05:40:28;;;;;;;0.10;0.10;;;;;;;;;;6192543;23;20472;-90
2022/07/25 05:42:57;;;;;;;0.10;0.10;;;;;;;;;;6217635;23;20012;-90
2022/07/25 05:45:23;;;;;;;0.10;0.10;;;;;;;;;;6192994;23;20019;-89
2022/07/25 05:47:49;;;;;;;0.10;0.10;;;;;;;;;;6219438;23;20023;-89
2022/07/25 05:50:15;;;;;;;0.17;0.17;;;;;;;;;;6194532;23;20341;-90
2022/07/25 05:52:41;;;;;;;0.10;0.10;;;;;;;;;;6194468;23;20016;-91
2022/07/25 05:55:07;;;;;;;0.15;0.15;;;;;;;;;;6194904;23;20465;-86
2022/07/25 05:57:34;;;;;;;0.20;0.20;;;;;;;;;;6194506;23;20012;-86
2022/07/25 06:00:00;;;;;;;0.10;0.10;;;;;;;;;;6194472;23;20012;-88
2022/07/25 06:02:26;;;;;;;0.13;0.13;;;;;;;;;;6219390;23;20062;-87
2022/07/25 06:04:52;;;;;;;0.10;0.10;;;;;;;;;;6194507;23;20016;-86
2022/07/25 06:07:18;;;;;;;0.10;0.10;;;;;;;;;;6219432;23;20310;-85
2022/07/25 06:09:44;;;;;;;0.10;0.10;;;;;;;;;;6194273;23;20020;-84
2022/07/25 06:12:10;;;;;;;0.20;0.20;;;;;;;;;;6218922;23;20016;-84
2022/07/25 06:14:36;;;;;;;0.10;0.10;;;;;;;;;;6246336;23;20307;-84
2022/07/25 06:17:02;;;;;;;0.10;0.10;;;;;;;;;;6219183;23;20073;-86
2022/07/25 06:19:28;;;;;;;0.10;0.10;;;;;;;;;;6218759;23;20065;-85
2022/07/25 06:21:54;;;;;;;0.10;0.10;;;;;;;;;;6194512;23;20016;-86
2022/07/25 06:24:20;;;;;;;0.10;0.10;;;;;;;;;;6194176;23;20019;-87
2022/07/25 06:26:46;;;;;;;0.20;0.20;;;;;;;;;;6194305;23;20016;-86
2022/07/25 06:29:12;;;;;;;0.10;0.10;;;;;;;;;;6219009;23;20016;-86
2022/07/25 06:31:38;;;;;;;0.10;0.10;;;;;;;;;;6194049;23;20461;-87
2022/07/25 06:34:04;;;;;;;0.10;0.10;;;;;;;;;;6193860;23;20027;-87
2022/07/25 06:36:30;;;;;;;0.10;0.10;;;;;;;;;;6218865;23;20019;-86
2022/07/25 06:38:56;;;;;;;0.10;0.10;;;;;;;;;;6194073;23;20315;-85
2022/07/25 06:41:22;;;;;;;0.10;0.10;;;;;;;;;;6218855;23;20040;-86
2022/07/25 06:43:48;;;;;;;0.10;0.10;;;;;;;;;;6194065;23;20035;-86
2022/07/25 06:46:14;;;;;;;0.20;0.20;;;;;;;;;;6218918;23;20020;-85
2022/07/25 06:48:40;;;;;;;0.10;0.10;;;;;;;;;;6193669;23;20012;-85
2022/07/25 06:51:06;;;;;;;0.10;0.10;;;;;;;;;;6218925;23;20020;-85
2022/07/25 06:53:32;;;;;;;0.10;0.10;;;;;;;;;;6218766;23;20430;-87
2022/07/25 06:55:58;;;;;;;0.30;0.30;;;;;;;;;;6219108;23;20043;-86
2022/07/25 06:58:24;;;;;;;0.10;0.10;;;;;;;;;;6193651;23;20012;-85
2022/07/25 07:00:50;;;;;;;0.10;0.10;;;;;;;;;;6193866;23;20486;-84
2022/07/25 07:03:16;;;;;;;0.20;0.20;;;;;;;;;;6218410;23;20082;-84
2022/07/25 07:05:42;;;;;;;0.10;0.10;;;;;;;;;;6218635;23;20023;-84
2022/07/25 07:08:08;;;;;;;0.10;0.10;;;;;;;;;;6218559;23;20437;-86
2022/07/25 07:10:34;;;;;;;0.20;0.20;;;;;;;;;;6218555;23;20113;-88
2022/07/25 07:13:07;;;;;;;0.20;0.20;;;;;;;;;;6244360;23;20337;-88
2022/07/25 07:15:33;;;;;;;0.20;0.20;;;;;;;;;;6195469;23;20422;-87
2022/07/25 07:18:07;;;;;;;0.15;0.15;;;;;;;;;;6163793;22;20016;-94
2022/07/25 07:20:35;;;;;;;0.10;0.10;;;;;;;;;;6161954;23;20025;-93
2022/07/25 07:23:01;;;;;;;0.20;0.20;;;;;;;;;;6163674;23;20456;-93
2022/07/25 07:25:29;;;;;;;0.30;0.30;;;;;;;;;;6139464;23;20015;-94
2022/07/25 07:27:55;;;;;;;0.20;0.20;;;;;;;;;;6139374;23;20013;-93
2022/07/25 07:30:21;;;;;;;0.20;0.20;;;;;;;;;;6188920;23;20051;-95
2022/07/25 07:32:49;;;;;;;0.20;0.20;;;;;;;;;;6164280;23;20020;-95
2022/07/25 07:35:17;;;;;;;0.20;0.20;;;;;;;;;;6163728;23;20325;-94
2022/07/25 07:37:43;;;;;;;0.52;0.52;;;;;;;;;;6163076;23;20085;-93
2022/07/25 07:40:10;;;;;;;0.20;0.20;;;;;;;;;;6164414;23;20376;-94
2022/07/25 07:42:43;;;;;;;0.20;0.20;;;;;;;;;;6164159;23;20019;-94
2022/07/25 07:45:12;;;;;;;0.20;0.20;;;;;;;;;;6164270;23;20022;-93
2022/07/25 07:47:38;;;;;;;0.13;0.13;;;;;;;;;;6188927;23;20508;-94
2022/07/25 07:50:05;;;;;;;0.10;0.10;;;;;;;;;;6163761;23;20025;-93
2022/07/25 07:52:31;;;;;;;0.15;0.15;;;;;;;;;;6163307;23;20472;-93
2022/07/25 07:57:53;;;;;;;0.20;0.20;;;;;;;;;;6188309;23;20095;-92
2022/07/25 08:00:19;;;;;;;0.30;0.30;;;;;;;;;;6188271;23;20385;-93
2022/07/25 08:02:49;;;;;;;0.20;0.20;;;;;;;;;;6188812;23;20013;-96
2022/07/25 08:05:29;;;;;;;0.20;0.20;;;;;;;;;;6191596;23;20016;-95
2022/07/25 08:07:55;;;;;;;0.22;0.22;;;;;;;;;;6162699;23;20356;-94
2022/07/25 08:10:25;;;;;;;0.43;0.43;;;;;;;;;;6189329;23;20016;-96
2022/07/25 08:12:51;;;;;;;0.20;0.20;;;;;;;;;;6163226;23;20024;-93
2022/07/25 08:15:18;;;;;;;0.20;0.20;;;;;;;;;;6163585;23;20009;-94
2022/07/25 08:17:44;;;;;;;0.20;0.20;;;;;;;;;;6163204;23;20023;-93
2022/07/25 08:20:10;;;;;;;0.13;0.13;;;;;;;;;;6183059;23;20055;-94
2022/07/25 08:22:40;;;;;;;0.20;0.20;;;;;;;;;;6188802;23;20024;-94
2022/07/25 08:25:09;;;;;;;0.28;0.28;;;;;;;;;;6188563;23;20012;-94
2022/07/25 08:27:35;;;;;;;0.20;0.20;;;;;;;;;;6188154;23;20467;-93
2022/07/25 08:30:04;;;;;;;0.10;0.10;;;;;;;;;;6187944;23;20017;-94
2022/07/25 08:32:31;;;;;;;0.10;0.10;;;;;;;;;;6188197;23;20025;-93
2022/07/25 08:34:58;;;;;;;0.10;0.10;;;;;;;;;;6188741;23;20009;-93
2022/07/25 08:37:24;;;;;;;0.10;0.10;;;;;;;;;;6188269;23;20315;-92
2022/07/25 08:39:50;;;;;;;0.20;0.20;;;;;;;;;;6188044;23;20016;-93
2022/07/25 08:42:17;;;;;;;0.20;0.20;;;;;;;;;;6188246;23;20013;-92
2022/07/25 08:44:43;;;;;;;0.30;0.30;;;;;;;;;;6188364;23;20012;-92
2022/07/25 08:47:14;;;;;;;0.13;0.13;;;;;;;;;;6188713;23;20044;-92
2022/07/25 08:49:40;;;;;;;0.20;0.20;;;;;;;;;;6189040;23;20039;-95
2022/07/25 08:52:06;;;;;;;0.20;0.20;;;;;;;;;;6188937;23;20283;-92
2022/07/25 08:54:32;;;;;;;0.20;0.20;;;;;;;;;;6187623;23;20383;-93
2022/07/25 08:56:59;;;;;;;0.20;0.20;;;;;;;;;;6187969;23;20315;-91
2022/07/25 08:59:24;;;;;;;0.20;0.20;;;;;;;;;;6188416;23;20008;-93
2022/07/25 09:01:51;;;;;;;0.17;0.17;;;;;;;;;;6188538;23;20507;-93
2022/07/25 09:04:17;;;;;;;0.20;0.20;;;;;;;;;;6187859;23;20017;-92
2022/07/25 09:06:50;;;;;;;0.20;0.20;;;;;;;;;;6187963;23;20031;-92
2022/07/25 09:09:16;;;;;;;0.10;0.10;;;;;;;;;;6188055;23;20332;-93
2022/07/25 09:11:42;;;;;;;0.10;0.10;;;;;;;;;;6188887;23;20049;-94
2022/07/25 09:14:09;;;;;;;0.10;0.10;;;;;;;;;;6188014;23;20048;-93
2022/07/25 09:16:37;;;;;;;0.10;0.10;;;;;;;;;;6188464;23;20091;-94
2022/07/25 09:19:09;;;;;;;0.20;0.20;;;;;;;;;;6188676;23;20055;-93
2022/07/25 09:21:35;;;;;;;;;;;;;;;;;;6191062;23;20433;-94
2022/07/25 09:24:08;;;;;;;0.10;0.10;;;;;;;;;;6189755;23;19943;-93
2022/07/25 09:26:42;;;;;;;0.10;0.10;;;;;;;;;;6190359;23;20022;-93
2022/07/25 09:29:15;;;;;;;0.10;0.10;;;;;;;;;;6190056;23;20020;-93
2022/07/25 09:31:41;;;;;;;0.10;0.10;;;;;;;;;;6190801;23;20019;-94
2022/07/25 09:34:08;;;;;;;0.20;0.20;;;;;;;;;;6189753;23;20413;-92
2022/07/25 09:36:38;;;;;;;0.10;0.10;;;;;;;;;;6189943;23;20460;-92
2022/07/25 09:39:05;;;;;;;0.20;0.20;;;;;;;;;;6190530;23;20020;-91
2022/07/25 09:41:38;;;;;;;0.20;0.20;;;;;;;;;;6194459;23;20012;-90
2022/07/25 09:44:16;;;;;;;0.15;0.15;;;;;;;;;;6197122;23;20035;-93
2022/07/25 09:46:52;;;;;;;0.28;0.28;;;;;;;;;;6222293;23;20021;-92
2022/07/25 09:49:18;;;;;;;0.35;0.35;;;;;;;;;;6195793;23;20092;-92
2022/07/25 09:51:46;;;;;;;0.20;0.20;;;;;;;;;;6194840;23;20017;-89
2022/07/25 09:54:11;;;;;;;0.10;0.10;;;;;;;;;;6193691;23;20012;-92
2022/07/25 09:56:37;;;;;;;0.10;0.10;;;;;;;;;;6194145;23;20009;-92
2022/07/25 09:59:04;;;;;;;0.10;0.10;;;;;;;;;;6193170;23;20017;-89
2022/07/25 10:01:49;;;;;;;0.10;0.10;;;;;;;;;;6191990;23;20015;-91
2022/07/25 10:04:18;;;;;;;0.10;0.10;;;;;;;;;;6192213;23;20017;-91
2022/07/25 10:06:56;;;;;;;0.10;0.10;;;;;;;;;;6216016;23;20395;-90
2022/07/25 10:09:25;;;;;;;0.13;0.13;;;;;;;;;;6192233;23;20437;-92
2022/07/25 10:12:10;;;;;;;0.20;0.20;;;;;;;;;;6189318;23;20036;-91
2022/07/25 10:14:36;;;;;;;0.20;0.20;;;;;;;;;;6189648;23;20213;-92
2022/07/25 10:17:02;;;;;;;0.13;0.13;;;;;;;;;;6189321;23;20016;-91
2022/07/25 10:19:42;;;;;;;0.10;0.10;;;;;;;;;;6189221;23;20013;-92
2022/07/25 10:22:08;;;;;;;0.10;0.10;;;;;;;;;;6189111;23;20012;-93
2022/07/25 10:24:34;;;;;;;0.10;0.10;;;;;;;;;;6189336;23;20013;-91
2022/07/25 10:27:06;;;;;;;0.20;0.20;;;;;;;;;;6189508;23;20488;-93
2022/07/25 10:29:33;;;;;;;0.20;0.20;;;;;;;;;;6189825;23;20416;-93
2022/07/25 10:32:05;;;;;;;0.20;0.20;;;;;;;;;;6188899;23;20066;-93
2022/07/25 10:34:31;;;;;;;0.15;0.15;;;;;;;;;;6189288;23;20016;-92
2022/07/25 10:36:58;;;;;;;0.10;0.10;;;;;;;;;;6214185;23;20059;-94
2022/07/25 10:39:24;;;;;;;0.20;0.20;;;;;;;;;;6189247;23;20402;-94
2022/07/25 10:42:08;;;;;;;0.10;0.10;;;;;;;;;;6191324;23;20087;-94
2022/07/25 10:44:44;;;;;;;0.20;0.20;;;;;;;;;;6188967;23;20036;-93
2022/07/25 10:47:12;;;;;;;0.13;0.13;;;;;;;;;;6189064;23;20027;-94
2022/07/25 10:49:39;;;;;;;0.10;0.10;;;;;;;;;;6189833;23;20066;-92
2022/07/25 10:52:05;;;;;;;0.30;0.30;;;;;;;;;;6190436;23;20012;-92
2022/07/25 10:54:33;;;;;;;0.10;0.10;;;;;;;;;;6189299;23;20017;-93
2022/07/25 10:56:59;;;;;;;0.20;0.20;;;;;;;;;;6189546;23;20048;-91
2022/07/25 10:59:27;;;;;;;0.20;0.20;;;;;;;;;;6189077;23;20419;-91
2022/07/25 11:01:53;;;;;;;0.20;0.20;;;;;;;;;;6188947;23;20023;-92
2022/07/25 11:04:19;;;;;;;0.10;0.10;;;;;;;;;;6189556;23;20013;-91
2022/07/25 11:06:46;;;;;;;0.20;0.20;;;;;;;;;;6189096;23;20467;-91
2022/07/25 11:09:23;;;;;;;0.20;0.20;;;;;;;;;;6189691;23;20044;-93
2022/07/25 11:11:50;;;;;;;0.30;0.30;;;;;;;;;;6189539;23;20066;-90
2022/07/25 11:14:17;;;;;;;0.20;0.20;;;;;;;;;;6189978;23;20064;-90
2022/07/25 11:16:47;;;;;;;0.10;0.10;;;;;;;;;;6189182;23;20047;-90
2022/07/25 11:19:23;;;;;;;0.10;0.10;;;;;;;;;;6188381;23;20021;-88
2022/07/25 11:21:50;;;;;;;0.10;0.10;;;;;;;;;;6139317;23;20012;-90
2022/07/25 11:24:16;;;;;;;0.10;0.10;;;;;;;;;;6164170;23;20421;-90
2022/07/25 11:26:48;;;;;;;0.10;0.10;;;;;;;;;;6139684;23;20087;-92
2022/07/25 11:29:14;;;;;;;;;;;;;;;;;;6139991;23;20021;-89
2022/07/25 11:31:40;;;;;;;0.15;0.15;;;;;;;;;;6189001;23;20082;-90
2022/07/25 11:34:06;;;;;;;0.10;0.10;;;;;;;;;;6139497;23;20078;-93
2022/07/25 11:36:32;;;;;;;0.10;0.10;;;;;;;;;;6163989;23;20066;-91
2022/07/25 11:38:58;;;;;;;0.20;0.20;;;;;;;;;;6139308;23;20015;-92
2022/07/25 11:41:27;;;;;;;0.25;0.25;;;;;;;;;;6139730;23;20055;-91
2022/07/25 11:43:53;;;;;;;1.02;0.93;;;;;;;;;;6163558;23;20074;-91
2022/07/25 11:46:19;;;;;;;0.10;0.10;;;;;;;;;;6139588;23;20044;-90
2022/07/25 11:48:46;;;;;;;0.20;0.20;;;;;;;;;;6139895;23;20467;-92
2022/07/25 11:51:16;;;;;;;0.10;0.10;;;;;;;;;;6139736;23;20032;-93
2022/07/25 11:53:46;;;;;;;0.20;0.20;;;;;;;;;;6139723;23;20048;-91
2022/07/25 11:56:12;;;;;;;0.10;0.10;;;;;;;;;;6163716;23;20342;-91
2022/07/25 11:58:38;;;;;;;0.10;0.10;;;;;;;;;;6188219;23;20012;-93
2022/07/25 12:01:10;;;;;;;0.20;0.20;;;;;;;;;;6136859;23;20441;-87
2022/07/25 12:03:37;;;;;;;0.20;0.20;;;;;;;;;;6189121;23;20021;-94
2022/07/25 12:06:07;;;;;;;0.10;0.10;;;;;;;;;;6188652;23;20287;-92
2022/07/25 12:08:36;;;;;;;0.10;0.10;;;;;;;;;;6164237;23;20027;-91
2022/07/25 12:11:02;;;;;;;0.10;0.10;;;;;;;;;;6139077;23;20389;-91
2022/07/25 12:13:28;;;;;;;0.10;0.10;;;;;;;;;;6138746;23;20013;-91
2022/07/25 12:15:58;;;;;;;0.20;0.20;;;;;;;;;;6139101;23;20008;-91
2022/07/25 12:18:24;;;;;;;0.10;0.10;;;;;;;;;;6138128;23;20382;-91
2022/07/25 12:20:52;;;;;;;0.10;0.10;;;;;;;;;;6188089;23;20527;-91
2022/07/25 12:23:18;;;;;;;0.10;0.10;;;;;;;;;;6162800;23;20433;-92
2022/07/25 12:25:44;;;;;;;0.20;0.20;;;;;;;;;;6138654;23;20099;-91
2022/07/25 12:28:10;;;;;;;0.20;0.20;;;;;;;;;;6163049;23;20019;-92
2022/07/25 12:30:37;;;;;;;0.10;0.10;;;;;;;;;;6163242;23;20012;-91
2022/07/25 12:33:05;;;;;;;0.10;0.10;;;;;;;;;;6162847;23;20052;-91
2022/07/25 12:35:31;;;;;;;0.10;0.10;;;;;;;;;;6187712;23;20460;-91
2022/07/25 12:37:57;;;;;;;0.10;0.10;;;;;;;;;;6161963;23;20446;-91
2022/07/25 12:40:23;;;;;;;0.20;0.20;;;;;;;;;;6163247;23;20350;-92
2022/07/25 12:42:49;;;;;;;0.17;0.17;;;;;;;;;;6163398;23;20231;-91
2022/07/25 12:45:16;;;;;;;0.10;0.10;;;;;;;;;;6163462;23;20016;-91
2022/07/25 12:47:45;;;;;;;0.10;0.10;;;;;;;;;;6163507;23;20016;-91
2022/07/25 12:50:12;;;;;;;0.20;0.20;;;;;;;;;;6163024;23;20016;-91
2022/07/25 12:52:38;;;;;;;0.15;0.15;;;;;;;;;;6187700;23;20013;-91
2022/07/25 12:55:08;;;;;;;0.10;0.10;;;;;;;;;;6163385;23;20020;-91
2022/07/25 12:57:37;;;;;;;0.20;0.20;;;;;;;;;;6163093;23;20012;-90
2022/07/25 13:00:04;;;;;;;0.20;0.20;;;;;;;;;;6138426;23;20475;-91
2022/07/25 13:02:30;;;;;;;0.10;0.10;;;;;;;;;;6162927;23;20066;-90
2022/07/25 13:04:56;;;;;;;0.20;0.20;;;;;;;;;;6163067;23;20437;-91
2022/07/25 13:07:22;;;;;;;0.10;0.10;;;;;;;;;;6163367;23;20015;-90
2022/07/25 13:09:48;;;;;;;0.10;0.10;;;;;;;;;;6162983;23;20441;-91
2022/07/25 13:12:14;;;;;;;0.10;0.10;;;;;;;;;;6163129;23;20011;-91
2022/07/25 13:14:40;;;;;;;0.10;0.10;;;;;;;;;;6163014;23;20012;-91
2022/07/25 13:17:06;;;;;;;0.10;0.10;;;;;;;;;;6163055;23;20055;-91
2022/07/25 13:19:32;;;;;;;0.13;0.13;;;;;;;;;;6163021;23;20039;-91
2022/07/25 13:21:58;;;;;;;0.20;0.20;;;;;;;;;;6163319;23;20035;-91
2022/07/25 13:24:24;;;;;;;0.20;0.20;;;;;;;;;;6187577;23;20016;-92
2022/07/25 13:26:50;;;;;;;0.10;0.10;;;;;;;;;;6188427;23;20017;-91
2022/07/25 13:29:16;;;;;;;0.10;0.10;;;;;;;;;;6187533;23;20202;-91
2022/07/25 13:31:42;;;;;;;0.45;0.20;;;;;;;;;;6162583;23;20177;-91
2022/07/25 13:34:08;;;;;;;0.10;0.10;;;;;;;;;;6162467;23;20464;-91
2022/07/25 13:36:34;;;;;;;0.10;0.10;;;;;;;;;;6187545;23;20135;-91
2022/07/25 13:39:01;;;;;;;0.10;0.10;;;;;;;;;;6162521;23;20013;-92
2022/07/25 13:41:27;;;;;;;0.10;0.10;;;;;;;;;;6162475;23;20015;-92
2022/07/25 13:43:53;;;;;;;0.10;0.10;;;;;;;;;;6162817;23;20048;-91
2022/07/25 13:46:19;;;;;;;0.20;0.20;;;;;;;;;;6162720;23;20013;-92
2022/07/25 13:48:45;;;;;;;0.10;0.10;;;;;;;;;;6162345;23;20017;-91
2022/07/25 13:51:13;;;;;;;0.10;0.10;;;;;;;;;;6163915;23;20024;-92
2022/07/25 13:53:43;;;;;;;0.13;0.13;;;;;;;;;;6187611;23;20463;-91
2022/07/25 13:56:10;;;;;;;0.10;0.10;;;;;;;;;;6162642;23;20759;-92
2022/07/25 13:58:36;;;;;;;0.10;0.10;;;;;;;;;;6162683;23;20008;-91
2022/07/25 14:01:02;;;;;;;0.30;0.30;;;;;;;;;;6162538;23;20016;-91
2022/07/25 14:03:28;;;;;;;0.10;0.10;;;;;;;;;;6162492;23;20091;-92
2022/07/25 14:05:54;;;;;;;0.10;0.10;;;;;;;;;;6162645;23;20021;-91
2022/07/25 14:08:20;;;;;;;0.20;0.20;;;;;;;;;;6163856;23;20020;-92
2022/07/25 14:10:46;;;;;;;0.10;0.10;;;;;;;;;;6189212;23;20013;-92
2022/07/25 14:13:12;;;;;;;0.10;0.10;;;;;;;;;;6189078;23;20388;-91
2022/07/25 14:15:38;;;;;;;0.10;0.10;;;;;;;;;;6164596;23;20040;-91
2022/07/25 14:18:04;;;;;;;0.20;0.20;;;;;;;;;;6188712;23;20013;-90
2022/07/25 14:20:31;;;;;;;0.10;0.10;;;;;;;;;;6188943;23;20016;-90
2022/07/25 14:22:58;;;;;;;0.10;0.10;;;;;;;;;;6189263;23;20020;-90
2022/07/25 14:25:23;;;;;;;0.20;0.20;;;;;;;;;;6164459;23;20016;-90
2022/07/25 14:27:49;;;;;;;0.10;0.10;;;;;;;;;;6163980;23;20083;-90
2022/07/25 14:30:15;;;;;;;0.10;0.10;;;;;;;;;;6189279;23;20017;-91
2022/07/25 14:32:41;;;;;;;0.20;0.20;;;;;;;;;;6164127;23;20023;-90
2022/07/25 14:35:08;;;;;;;0.10;0.10;;;;;;;;;;6164514;23;20012;-91
2022/07/25 14:37:34;;;;;;;0.10;0.10;;;;;;;;;;6163958;23;20013;-90
2022/07/25 14:40:00;;;;;;;0.10;0.10;;;;;;;;;;6188722;23;20013;-90
2022/07/25 14:42:27;;;;;;;0.10;0.10;;;;;;;;;;6164678;23;20020;-91
2022/07/25 14:44:53;;;;;;;0.20;0.20;;;;;;;;;;6163882;23;20008;-91